Terminal Aerodrome Forecast
Issued by NWS Hastings, NE

Home | Current Version | Previous Version | Text Only | Print | Product List | Glossary On
Versions: 1 2 3 4 5 6 7 8 9 10 11 12 13 14 15
000
FTUS45 KGID 020858 AAA
TAFEAR
TAF AMD
KEAR 020858Z 0209/0306 16014KT P6SM VCTS SCT020 BKN035CB
      TEMPO 0209/0212 25015G20KT 4SM -TSRA BKN020CB
     FM021200 16016G22KT P6SM OVC015
     FM021600 17017G26KT P6SM OVC045
     FM030200 16015KT P6SM BKN045
      AMD LTD TO CLD VIS AND WIND=

USA.gov is the U.S. government's official web portal to all federal, state and local government web resources and services.